createdAt,value
2022-12-01T00:01:12.652Z,51.63
2022-12-01T00:03:39.735Z,52.93
2022-12-01T00:06:09.820Z,52.50
2022-12-01T00:08:36.629Z,51.80
2022-12-01T00:11:12.078Z,51.40
2022-12-01T00:13:38.968Z,50.70
2022-12-01T00:16:16.822Z,51.50
2022-12-01T00:18:44.347Z,51.97
2022-12-01T00:21:18.883Z,50.93
2022-12-01T00:23:49.470Z,50.90
2022-12-01T00:26:17.513Z,54.87
2022-12-01T00:28:44.181Z,50.93
2022-12-01T00:31:12.128Z,51.87
2022-12-01T00:33:39.687Z,51.23
2022-12-01T00:36:07.123Z,53.73
2022-12-01T00:38:34.269Z,53.23
2022-12-01T00:41:01.403Z,50.23
2022-12-01T00:43:27.927Z,51.80
2022-12-01T00:45:56.368Z,52.27
2022-12-01T00:48:23.376Z,51.17
2022-12-01T00:50:54.413Z,51.17
2022-12-01T00:53:21.722Z,53.00
2022-12-01T00:55:48.290Z,51.33
2022-12-01T00:58:15.144Z,48.90
2022-12-01T01:00:43.029Z,49.93
2022-12-01T01:03:10.812Z,51.47
2022-12-01T01:05:41.585Z,50.63
2022-12-01T01:08:09.945Z,49.77
2022-12-01T01:10:45.055Z,51.50
2022-12-01T01:13:13.093Z,50.67
2022-12-01T01:15:40.401Z,50.23
2022-12-01T01:18:09.581Z,51.00
2022-12-01T01:20:36.147Z,51.13
2022-12-01T01:23:02.703Z,53.73
2022-12-01T01:25:32.357Z,51.27
2022-12-01T01:27:58.899Z,49.83
2022-12-01T01:30:25.485Z,50.70
2022-12-01T01:32:52.055Z,50.90
2022-12-01T01:35:18.577Z,50.10
2022-12-01T01:37:45.156Z,52.70
2022-12-01T01:40:12.012Z,50.70
2022-12-01T01:42:38.563Z,52.10
2022-12-01T01:45:17.256Z,49.27
2022-12-01T01:47:44.359Z,50.80
2022-12-01T01:50:14.896Z,51.17
2022-12-01T01:52:59.424Z,50.97
2022-12-01T01:55:26.469Z,50.50
2022-12-01T01:57:53.150Z,51.27
2022-12-01T02:00:21.027Z,51.43
2022-12-01T02:02:49.151Z,51.20
2022-12-01T02:05:29.410Z,51.57
2022-12-01T02:07:57.948Z,50.73
2022-12-01T02:10:48.592Z,52.33
2022-12-01T02:13:34.515Z,49.93
2022-12-01T02:16:23.375Z,50.40
2022-12-01T02:19:27.702Z,47.83
2022-12-01T02:22:35.565Z,49.90
2022-12-01T02:25:20.174Z,50.13
2022-12-01T02:28:22.229Z,50.80
2022-12-01T02:30:58.671Z,48.47
2022-12-01T02:33:28.242Z,49.90
2022-12-01T02:36:15.845Z,50.60
2022-12-01T02:39:10.116Z,49.60
2022-12-01T02:41:39.422Z,51.27
2022-12-01T02:44:40.821Z,50.47
2022-12-01T02:47:19.330Z,51.70
2022-12-01T02:49:53.010Z,52.30
2022-12-01T02:52:23.716Z,51.43
2022-12-01T02:54:51.043Z,49.77
2022-12-01T02:57:17.650Z,53.17
2022-12-01T02:59:48.671Z,51.70
2022-12-01T03:02:28.317Z,49.43
2022-12-01T03:05:06.876Z,50.37
2022-12-01T03:07:51.736Z,50.67
2022-12-01T03:10:43.089Z,49.67
2022-12-01T03:13:18.438Z,50.50
2022-12-01T03:16:26.428Z,51.93
2022-12-01T03:18:58.857Z,49.90
2022-12-01T03:21:30.526Z,50.40
2022-12-01T03:24:03.876Z,50.67
2022-12-01T03:26:32.897Z,49.00
2022-12-01T03:29:05.619Z,53.40
2022-12-01T03:31:40.766Z,50.53
2022-12-01T03:34:18.550Z,50.57
2022-12-01T03:36:50.149Z,51.53
2022-12-01T03:39:24.004Z,52.70
2022-12-01T03:41:57.952Z,53.93
2022-12-01T03:44:36.826Z,51.07
2022-12-01T03:47:10.984Z,52.87
2022-12-01T03:49:39.126Z,52.53
2022-12-01T03:52:32.899Z,53.57
2022-12-01T03:55:18.081Z,53.70
2022-12-01T03:58:11.253Z,53.73
2022-12-01T04:00:38.665Z,51.20
2022-12-01T04:03:06.256Z,55.03
2022-12-01T04:05:35.005Z,53.10
2022-12-01T04:08:02.125Z,53.03
2022-12-01T04:10:28.779Z,53.40
2022-12-01T04:12:59.370Z,53.77
2022-12-01T04:15:27.040Z,53.23
2022-12-01T04:17:54.105Z,53.93
2022-12-01T04:20:20.704Z,53.77
2022-12-01T04:22:48.312Z,53.93
2022-12-01T04:25:14.964Z,54.93
2022-12-01T04:27:41.549Z,54.13
2022-12-01T04:30:08.869Z,54.60
2022-12-01T04:32:43.007Z,54.73
2022-12-01T04:35:11.500Z,54.57
2022-12-01T04:37:38.961Z,53.00
2022-12-01T04:40:06.468Z,54.90
2022-12-01T04:42:32.994Z,50.93
2022-12-01T04:44:59.646Z,52.97
2022-12-01T04:47:26.206Z,53.17
2022-12-01T04:49:54.550Z,52.83
2022-12-01T04:52:21.102Z,53.93
2022-12-01T04:54:47.616Z,54.13
2022-12-01T04:57:14.223Z,53.60
2022-12-01T04:59:41.184Z,52.57
2022-12-01T05:02:08.248Z,53.43
2022-12-01T05:04:38.541Z,52.83
2022-12-01T05:07:05.381Z,53.37
2022-12-01T05:09:31.929Z,52.23
2022-12-01T05:11:58.469Z,53.17
2022-12-01T05:14:24.965Z,55.00
2022-12-01T05:16:51.716Z,54.13
2022-12-01T05:19:36.706Z,53.50
2022-12-01T05:22:03.285Z,52.63
2022-12-01T05:24:29.855Z,53.70
2022-12-01T05:26:56.346Z,51.20
2022-12-01T05:29:22.929Z,54.30
2022-12-01T05:31:49.591Z,52.37
2022-12-01T05:34:16.363Z,53.20
2022-12-01T05:36:42.881Z,54.40
2022-12-01T05:39:09.389Z,53.53
2022-12-01T05:41:36.088Z,53.27
2022-12-01T05:44:02.663Z,51.57
2022-12-01T05:46:29.214Z,51.87
2022-12-01T05:48:55.677Z,51.70
2022-12-01T05:51:22.291Z,53.20
2022-12-01T05:53:48.798Z,52.87
2022-12-01T05:56:15.306Z,52.47
2022-12-01T05:58:41.780Z,51.50
2022-12-01T06:01:08.380Z,51.83
2022-12-01T06:03:34.961Z,52.33
2022-12-01T06:06:01.508Z,52.30
2022-12-01T06:08:28.140Z,53.43
2022-12-01T06:10:54.711Z,53.03
2022-12-01T06:13:21.234Z,50.73
2022-12-01T06:15:56.982Z,51.83
2022-12-01T06:18:24.471Z,52.67
2022-12-01T06:20:50.952Z,50.73
2022-12-01T06:23:17.463Z,50.90
2022-12-01T06:25:44.116Z,51.63
2022-12-01T06:28:10.632Z,53.77
2022-12-01T06:30:37.210Z,52.13
2022-12-01T06:33:03.983Z,49.87
2022-12-01T06:35:30.834Z,52.93
2022-12-01T06:37:57.904Z,50.47
2022-12-01T06:40:24.973Z,50.90
2022-12-01T06:42:51.988Z,52.00
2022-12-01T06:45:19.179Z,51.73
2022-12-01T06:47:48.633Z,50.60
2022-12-01T06:50:15.669Z,52.07
2022-12-01T06:52:42.204Z,50.53
2022-12-01T06:55:09.052Z,51.63
2022-12-01T06:57:35.676Z,52.03
2022-12-01T07:00:04.239Z,51.80
2022-12-01T07:02:30.986Z,51.37
2022-12-01T07:04:57.564Z,50.43
2022-12-01T07:07:24.351Z,52.67
2022-12-01T07:09:51.216Z,50.83
2022-12-01T07:12:18.068Z,50.43
2022-12-01T07:14:45.310Z,52.03
2022-12-01T07:17:11.813Z,52.17
2022-12-01T07:19:38.422Z,50.87
2022-12-01T07:22:04.987Z,51.90
2022-12-01T07:24:31.566Z,52.17
2022-12-01T07:26:58.183Z,52.17
2022-12-01T07:29:24.678Z,52.33
2022-12-01T07:31:51.211Z,52.33
2022-12-01T07:34:17.693Z,52.93
2022-12-01T07:36:44.199Z,51.83
2022-12-01T07:39:10.687Z,52.50
2022-12-01T07:41:37.215Z,53.00
2022-12-01T07:44:03.791Z,53.50
2022-12-01T07:46:30.558Z,53.17
2022-12-01T07:48:57.974Z,53.57
2022-12-01T07:51:25.909Z,54.33
2022-12-01T07:53:53.966Z,53.57
2022-12-01T07:56:21.813Z,52.73
2022-12-01T07:58:49.089Z,53.97
2022-12-01T08:01:19.222Z,50.63
2022-12-01T08:03:47.417Z,54.47
2022-12-01T08:06:13.979Z,53.27
2022-12-01T08:08:41.352Z,52.60
2022-12-01T08:11:13.031Z,51.50
2022-12-01T08:13:40.632Z,56.40
2022-12-01T08:16:09.351Z,53.70
2022-12-01T08:18:37.456Z,54.03
2022-12-01T08:21:05.009Z,54.23
2022-12-01T08:23:31.794Z,53.10
2022-12-01T08:26:02.254Z,53.57
2022-12-01T08:28:28.989Z,53.63
2022-12-01T08:30:55.862Z,53.50
2022-12-01T08:33:22.964Z,55.67
2022-12-01T08:35:49.704Z,53.83
2022-12-01T08:38:16.416Z,53.40
2022-12-01T08:40:43.023Z,53.87
2022-12-01T08:43:15.206Z,51.97
2022-12-01T08:45:49.499Z,53.47
2022-12-01T08:48:16.195Z,54.53
2022-12-01T08:50:42.695Z,51.73
2022-12-01T08:53:09.199Z,53.27
2022-12-01T08:55:36.248Z,51.20
2022-12-01T08:58:02.870Z,49.83
2022-12-01T09:00:29.488Z,50.03
2022-12-01T09:02:56.091Z,50.40
2022-12-01T09:05:22.796Z,49.70
2022-12-01T09:08:09.362Z,49.23
2022-12-01T09:10:36.059Z,49.37
2022-12-01T09:13:02.626Z,49.43
2022-12-01T09:15:29.161Z,47.93
2022-12-01T09:17:55.717Z,48.57
2022-12-01T09:20:22.189Z,48.37
2022-12-01T09:22:48.722Z,48.23
2022-12-01T09:25:15.297Z,48.63
2022-12-01T09:27:41.940Z,46.50
2022-12-01T09:30:08.869Z,47.63
2022-12-01T09:32:35.388Z,48.93
2022-12-01T09:35:01.887Z,46.00
2022-12-01T09:37:28.439Z,47.93
2022-12-01T09:39:55.895Z,46.90
2022-12-01T09:42:32.245Z,46.27
2022-12-01T09:45:05.005Z,47.10
2022-12-01T09:47:35.386Z,46.97
2022-12-01T09:50:04.792Z,44.60
2022-12-01T09:52:40.988Z,46.00
2022-12-01T09:55:15.557Z,46.97
2022-12-01T09:57:44.002Z,45.10
2022-12-01T10:00:23.519Z,43.67
2022-12-01T10:02:53.134Z,43.77
2022-12-01T10:05:23.526Z,44.87
2022-12-01T10:07:56.336Z,45.43
2022-12-01T10:10:42.560Z,44.90
2022-12-01T10:13:19.932Z,44.03
2022-12-01T10:15:56.596Z,44.97
2022-12-01T10:18:42.015Z,45.20
2022-12-01T10:21:46.148Z,44.57
2022-12-01T10:24:23.779Z,45.40
2022-12-01T10:27:13.545Z,41.73
2022-12-01T10:30:03.556Z,42.17
2022-12-01T10:32:44.990Z,39.47
2022-12-01T10:35:17.487Z,41.43
2022-12-01T10:37:46.094Z,41.07
2022-12-01T10:40:15.310Z,42.67
2022-12-01T10:42:47.544Z,41.67
2022-12-01T10:45:20.322Z,40.03
2022-12-01T10:48:21.584Z,39.13
2022-12-01T10:50:54.377Z,39.20
2022-12-01T10:53:28.423Z,37.07
2022-12-01T10:56:08.541Z,37.17
2022-12-01T10:58:57.508Z,36.90
2022-12-01T11:01:26.899Z,36.70
2022-12-01T11:04:24.664Z,37.17
2022-12-01T11:06:51.692Z,33.80
2022-12-01T11:09:26.181Z,34.27
2022-12-01T11:12:01.857Z,33.50
2022-12-01T11:14:41.222Z,35.33
2022-12-01T11:17:22.646Z,34.13
2022-12-01T11:19:49.612Z,33.80
2022-12-01T11:22:32.145Z,35.63
2022-12-01T11:25:05.159Z,35.07
2022-12-01T11:28:03.831Z,35.53
2022-12-01T11:30:32.596Z,33.93
2022-12-01T11:33:04.462Z,33.63
2022-12-01T11:35:37.572Z,30.13
2022-12-01T11:38:28.753Z,29.97
2022-12-01T11:40:55.275Z,28.23
2022-12-01T11:43:35.590Z,30.43
2022-12-01T11:46:05.426Z,29.23
2022-12-01T11:48:36.779Z,29.73
2022-12-01T11:51:03.361Z,30.77
2022-12-01T11:53:41.890Z,30.90
2022-12-01T11:56:17.377Z,31.43
2022-12-01T11:58:46.002Z,31.23
2022-12-01T12:01:29.075Z,29.87
2022-12-01T12:04:18.522Z,30.30
2022-12-01T12:06:58.667Z,31.37
2022-12-01T12:09:52.720Z,31.53
2022-12-01T12:12:31.061Z,31.10
2022-12-01T12:15:27.541Z,32.33
2022-12-01T12:17:57.129Z,32.77
2022-12-01T12:20:42.714Z,33.67
2022-12-01T12:23:09.262Z,36.57
2022-12-01T12:25:53.009Z,33.47
2022-12-01T12:28:49.677Z,31.83
2022-12-01T12:31:22.811Z,33.80
2022-12-01T12:34:12.567Z,35.63
2022-12-01T12:37:15.062Z,30.93
2022-12-01T12:40:18.884Z,31.27
2022-12-01T12:42:54.504Z,30.80
2022-12-01T12:45:35.899Z,30.87
2022-12-01T12:48:08.373Z,28.30
2022-12-01T12:50:47.882Z,28.70
2022-12-01T12:53:20.086Z,30.53
2022-12-01T12:55:52.865Z,27.37
2022-12-01T12:58:26.195Z,27.37
2022-12-01T13:01:17.695Z,27.27
2022-12-01T13:03:50.006Z,28.30
2022-12-01T13:06:24.565Z,26.07
2022-12-01T13:09:01.495Z,28.30
2022-12-01T13:11:38.436Z,28.17
2022-12-01T13:14:16.482Z,26.90
2022-12-01T13:16:47.324Z,27.67
2022-12-01T13:19:25.004Z,26.77
2022-12-01T13:21:53.040Z,26.47
2022-12-01T13:24:24.135Z,27.57
2022-12-01T13:27:02.648Z,28.07
2022-12-01T13:29:38.431Z,26.13
2022-12-01T13:32:29.385Z,25.60
2022-12-01T13:34:56.748Z,25.20
2022-12-01T13:37:32.162Z,24.43
2022-12-01T13:40:20.310Z,23.67
2022-12-01T13:43:04.209Z,24.73
2022-12-01T13:45:37.310Z,23.30
2022-12-01T13:48:06.003Z,23.23
2022-12-01T13:50:46.160Z,21.67
2022-12-01T13:53:25.276Z,20.30
2022-12-01T13:56:17.557Z,20.83
2022-12-01T13:58:49.344Z,19.43
2022-12-01T14:01:22.130Z,19.87
2022-12-01T14:03:52.098Z,20.80
2022-12-01T14:06:38.632Z,19.93
2022-12-01T14:09:32.719Z,18.60
2022-12-01T14:12:06.569Z,19.33
2022-12-01T14:14:37.597Z,19.23
2022-12-01T14:17:04.696Z,19.27
2022-12-01T14:19:44.583Z,21.67
2022-12-01T14:22:44.292Z,19.73
2022-12-01T14:25:27.200Z,19.50
2022-12-01T14:28:01.391Z,21.10
2022-12-01T14:30:45.588Z,20.40
2022-12-01T14:33:39.803Z,20.00
2022-12-01T14:36:12.088Z,20.10
2022-12-01T14:38:38.863Z,20.03
2022-12-01T14:41:10.581Z,20.43
2022-12-01T14:44:00.135Z,20.47
2022-12-01T14:46:29.412Z,19.87
2022-12-01T14:48:57.605Z,20.93
2022-12-01T14:51:28.332Z,20.80
2022-12-01T14:53:57.199Z,21.43
2022-12-01T14:56:25.896Z,20.90
2022-12-01T14:59:12.330Z,19.57
2022-12-01T15:01:38.997Z,19.50
2022-12-01T15:04:06.382Z,22.13
2022-12-01T15:06:35.264Z,21.67
2022-12-01T15:09:31.983Z,21.60
2022-12-01T15:12:00.379Z,22.07
2022-12-01T15:14:38.831Z,23.10
2022-12-01T15:17:08.975Z,22.10
2022-12-01T15:19:41.095Z,24.53
2022-12-01T15:22:18.102Z,25.43
2022-12-01T15:24:45.619Z,26.13
2022-12-01T15:27:32.536Z,27.57
2022-12-01T15:30:04.442Z,26.70
2022-12-01T15:32:34.439Z,25.33
2022-12-01T15:35:03.594Z,25.10
2022-12-01T15:37:40.552Z,23.67
2022-12-01T15:40:54.470Z,23.63
2022-12-01T15:43:14.327Z,19.63
2022-12-01T15:46:01.532Z,19.17
2022-12-01T15:48:31.529Z,18.77
2022-12-01T15:51:19.914Z,20.00
2022-12-01T15:53:54.049Z,20.73
2022-12-01T15:56:31.070Z,18.60
2022-12-01T15:59:32.415Z,18.53
2022-12-01T16:01:59.542Z,17.10
2022-12-01T16:04:29.671Z,17.90
2022-12-01T16:07:07.040Z,19.17
2022-12-01T16:09:42.451Z,18.03
2022-12-01T16:12:17.935Z,18.90
2022-12-01T16:15:12.654Z,17.30
2022-12-01T16:17:42.123Z,17.67
2022-12-01T16:20:30.989Z,17.43
2022-12-01T16:23:03.350Z,17.27
2022-12-01T16:25:37.705Z,16.60
2022-12-01T16:28:06.284Z,17.03
2022-12-01T16:30:39.176Z,23.53
2022-12-01T16:33:17.109Z,21.70
2022-12-01T16:35:44.513Z,18.17
2022-12-01T16:38:16.177Z,18.23
2022-12-01T16:40:43.641Z,17.53
2022-12-01T16:43:18.999Z,16.97
2022-12-01T16:45:50.328Z,17.03
2022-12-01T16:48:19.455Z,17.13
2022-12-01T16:50:47.946Z,16.97
2022-12-01T16:53:14.524Z,19.13
2022-12-01T16:55:54.486Z,19.43
2022-12-01T16:58:21.594Z,18.13
2022-12-01T17:00:56.312Z,20.23
2022-12-01T17:03:25.524Z,19.20
2022-12-01T17:05:52.988Z,21.90
2022-12-01T17:08:20.183Z,18.67
2022-12-01T17:10:50.292Z,17.77
2022-12-01T17:13:18.539Z,17.03
2022-12-01T17:15:47.341Z,17.10
2022-12-01T17:18:16.176Z,16.40
2022-12-01T17:20:43.093Z,16.90
2022-12-01T17:23:09.828Z,16.90
2022-12-01T17:25:40.741Z,27.10
2022-12-01T17:28:07.678Z,23.03
2022-12-01T17:30:34.349Z,25.47
2022-12-01T17:33:00.842Z,26.27
2022-12-01T17:35:27.372Z,22.70
2022-12-01T17:37:53.874Z,24.17
2022-12-01T17:40:20.882Z,20.67
2022-12-01T17:42:50.818Z,17.60
2022-12-01T17:45:18.361Z,17.47
2022-12-01T17:47:45.210Z,16.63
2022-12-01T17:50:12.291Z,17.07
2022-12-01T17:52:38.959Z,16.13
2022-12-01T17:55:06.339Z,16.67
2022-12-01T17:57:33.238Z,16.27
2022-12-01T18:00:01.557Z,18.83
2022-12-01T18:02:28.161Z,19.13
2022-12-01T18:04:54.898Z,20.63
2022-12-01T18:07:21.624Z,20.10
2022-12-01T18:09:48.257Z,17.57
2022-12-01T18:12:14.859Z,18.00
2022-12-01T18:14:41.390Z,17.93
2022-12-01T18:17:08.013Z,17.60
2022-12-01T18:19:34.593Z,19.30
2022-12-01T18:22:01.226Z,18.73
2022-12-01T18:24:27.848Z,17.90
2022-12-01T18:26:55.471Z,18.10
2022-12-01T18:29:28.745Z,17.50
2022-12-01T18:31:56.255Z,17.50
2022-12-01T18:34:22.916Z,16.97
2022-12-01T18:36:50.067Z,16.77
2022-12-01T18:39:17.024Z,16.70
2022-12-01T18:41:43.709Z,18.13
2022-12-01T18:44:10.943Z,15.80
2022-12-01T18:46:37.915Z,17.37
2022-12-01T18:49:06.683Z,16.33
2022-12-01T18:51:35.536Z,17.30
2022-12-01T18:54:04.229Z,18.07
2022-12-01T18:56:31.309Z,17.07
2022-12-01T18:58:59.963Z,17.57
2022-12-01T19:01:32.237Z,17.60
2022-12-01T19:03:59.831Z,18.07
2022-12-01T19:06:27.545Z,17.83
2022-12-01T19:08:54.407Z,18.90
2022-12-01T19:11:21.727Z,18.40
2022-12-01T19:13:48.378Z,17.47
2022-12-01T19:16:18.862Z,18.40
2022-12-01T19:18:46.064Z,18.90
2022-12-01T19:21:15.452Z,19.47
2022-12-01T19:23:42.808Z,19.83
2022-12-01T19:26:18.783Z,19.53
2022-12-01T19:28:46.095Z,18.80
2022-12-01T19:31:23.891Z,19.83
2022-12-01T19:33:54.710Z,19.37
2022-12-01T19:36:25.410Z,20.30
2022-12-01T19:38:53.002Z,20.17
2022-12-01T19:41:21.085Z,20.63
2022-12-01T19:43:48.241Z,20.53
2022-12-01T19:46:17.699Z,21.53
2022-12-01T19:48:45.109Z,23.77
2022-12-01T19:51:23.109Z,25.20
2022-12-01T19:53:50.147Z,25.73
2022-12-01T19:56:16.669Z,26.73
2022-12-01T19:58:43.278Z,29.13
2022-12-01T20:01:12.624Z,28.97
2022-12-01T20:03:40.654Z,30.93
2022-12-01T20:06:09.825Z,32.00
2022-12-01T20:08:36.391Z,28.70
2022-12-01T20:11:04.305Z,27.17
2022-12-01T20:13:32.470Z,28.57
2022-12-01T20:16:07.242Z,29.87
2022-12-01T20:18:34.185Z,32.33
2022-12-01T20:21:28.631Z,33.17
2022-12-01T20:23:58.205Z,30.60
2022-12-01T20:26:30.578Z,29.10
2022-12-01T20:29:01.520Z,30.03
2022-12-01T20:31:30.253Z,30.67
2022-12-01T20:33:58.752Z,30.13
2022-12-01T20:36:26.851Z,28.87
2022-12-01T20:38:55.048Z,31.30
2022-12-01T20:41:22.850Z,34.50
2022-12-01T20:43:49.505Z,34.73
2022-12-01T20:46:16.788Z,30.00
2022-12-01T20:48:44.085Z,30.47
2022-12-01T20:51:14.246Z,31.53
2022-12-01T20:53:54.454Z,30.47
2022-12-01T20:56:29.537Z,31.80
2022-12-01T20:59:00.963Z,32.03
2022-12-01T21:01:28.434Z,30.73
2022-12-01T21:03:55.685Z,29.17
2022-12-01T21:06:22.877Z,27.50
2022-12-01T21:08:50.961Z,26.90
2022-12-01T21:11:42.022Z,27.27
2022-12-01T21:14:33.638Z,24.73
2022-12-01T21:17:05.902Z,25.67
2022-12-01T21:19:47.865Z,26.23
2022-12-01T21:22:15.014Z,25.93
2022-12-01T21:24:44.004Z,25.53
2022-12-01T21:27:15.326Z,23.40
2022-12-01T21:29:46.005Z,24.03
2022-12-01T21:32:17.429Z,24.07
2022-12-01T21:34:46.288Z,23.80
2022-12-01T21:37:20.021Z,24.27
2022-12-01T21:39:50.842Z,23.53
2022-12-01T21:42:22.408Z,24.63
2022-12-01T21:44:49.784Z,23.67
2022-12-01T21:47:20.615Z,23.73
2022-12-01T21:49:51.001Z,23.40
2022-12-01T21:52:22.769Z,22.63
2022-12-01T21:54:49.974Z,23.13
2022-12-01T21:57:30.551Z,22.63
2022-12-01T22:00:29.698Z,23.23
2022-12-01T22:03:08.401Z,24.57
2022-12-01T22:05:39.040Z,22.80
2022-12-01T22:08:14.449Z,24.57
2022-12-01T22:11:04.682Z,24.80
2022-12-01T22:13:46.560Z,23.67
2022-12-01T22:16:20.901Z,24.20
2022-12-01T22:18:53.928Z,25.07
2022-12-01T22:21:23.554Z,23.17
2022-12-01T22:24:00.887Z,24.80
2022-12-01T22:26:27.402Z,24.10
2022-12-01T22:28:58.085Z,24.20
2022-12-01T22:31:25.066Z,24.03
2022-12-01T22:34:03.251Z,23.30
2022-12-01T22:36:31.836Z,23.20
2022-12-01T22:38:58.843Z,24.67
2022-12-01T22:41:26.963Z,25.17
2022-12-01T22:43:59.592Z,23.93
2022-12-01T22:46:44.092Z,23.63
2022-12-01T22:49:10.610Z,24.47
2022-12-01T22:51:46.338Z,24.93
2022-12-01T22:54:12.786Z,24.43
2022-12-01T22:56:43.315Z,23.80
2022-12-01T22:59:16.317Z,23.47
2022-12-01T23:01:56.374Z,22.73
2022-12-01T23:04:32.543Z,24.13
2022-12-01T23:07:06.549Z,24.30
2022-12-01T23:09:37.683Z,23.53
2022-12-01T23:12:10.177Z,23.27
2022-12-01T23:14:41.266Z,23.57
2022-12-01T23:17:14.541Z,22.57
2022-12-01T23:19:41.054Z,23.83
2022-12-01T23:22:09.570Z,22.97
2022-12-01T23:24:36.134Z,23.90
2022-12-01T23:27:02.692Z,24.20
2022-12-01T23:29:30.342Z,23.77
2022-12-01T23:31:56.829Z,23.47
2022-12-01T23:34:23.326Z,23.00
2022-12-01T23:36:50.411Z,24.37
2022-12-01T23:39:18.912Z,22.63
2022-12-01T23:41:50.437Z,22.73
2022-12-01T23:44:29.130Z,22.80
2022-12-01T23:46:58.012Z,24.07
2022-12-01T23:49:29.897Z,21.97
2022-12-01T23:52:00.293Z,22.03
2022-12-01T23:54:33.180Z,22.47
2022-12-01T23:57:03.129Z,22.00
2022-12-01T23:59:31.594Z,21.97
